createdAt,value
2022-08-19T00:00:50.039Z,100473.97
2022-08-19T00:03:19.503Z,100432.22
2022-08-19T00:05:46.697Z,100441.81
2022-08-19T00:08:14.095Z,100487.56
2022-08-19T00:10:40.877Z,100451.19
2022-08-19T00:13:07.576Z,100444.81
2022-08-19T00:15:34.528Z,100482.56
2022-08-19T00:18:01.421Z,100444.13
2022-08-19T00:20:28.349Z,100450.06
2022-08-19T00:22:55.518Z,100482.81
2022-08-19T00:25:30.270Z,100466.81
2022-08-19T00:27:57.722Z,100462.47
2022-08-19T00:30:24.593Z,100463.47
2022-08-19T00:32:51.793Z,100477.13
2022-08-19T00:35:19.620Z,100488.69
2022-08-19T00:37:49.517Z,100493.22
2022-08-19T00:40:16.807Z,100457.91
2022-08-19T00:42:44.066Z,100470.09
2022-08-19T00:45:21.557Z,100482.84
2022-08-19T00:47:48.245Z,100443.03
2022-08-19T00:50:16.036Z,100486.78
2022-08-19T00:52:46.370Z,100482.75
2022-08-19T00:55:20.497Z,100471.13
2022-08-19T00:57:55.608Z,100430.09
2022-08-19T01:00:29.791Z,100447.66
2022-08-19T01:02:56.564Z,100428.22
2022-08-19T01:05:28.743Z,100427.22
2022-08-19T01:08:01.849Z,100466.75
2022-08-19T01:10:36.684Z,100460.44
2022-08-19T01:13:05.223Z,100476.66
2022-08-19T01:15:41.160Z,100457.13
2022-08-19T01:18:11.289Z,100468.81
2022-08-19T01:20:38.604Z,100485.88
2022-08-19T01:23:05.274Z,100467.91
2022-08-19T01:25:37.359Z,100489.66
2022-08-19T01:28:11.067Z,100461.59
2022-08-19T01:30:38.399Z,100470.84
2022-08-19T01:33:06.654Z,100493.03
2022-08-19T01:35:33.747Z,100471.00
2022-08-19T01:38:08.400Z,100465.66
2022-08-19T01:40:39.239Z,100482.19
2022-08-19T01:43:06.802Z,100468.22
2022-08-19T01:45:35.306Z,100463.53
2022-08-19T01:48:04.762Z,100482.31
2022-08-19T01:50:33.623Z,100489.97
2022-08-19T01:53:05.912Z,100506.41
2022-08-19T01:55:40.871Z,100519.53
2022-08-19T01:58:11.832Z,100502.78
2022-08-19T02:00:38.648Z,100529.16
2022-08-19T02:03:05.193Z,100497.78
2022-08-19T02:05:31.922Z,100522.34
2022-08-19T02:08:17.796Z,100484.16
2022-08-19T02:10:57.076Z,100491.06
2022-08-19T02:13:46.363Z,100513.34
2022-08-19T02:16:19.152Z,100483.66
2022-08-19T02:19:32.519Z,100458.41
2022-08-19T02:22:08.027Z,100435.38
2022-08-19T02:28:18.730Z,100411.56
2022-08-19T02:31:04.956Z,100396.19
2022-08-19T02:33:59.313Z,100363.16
2022-08-19T02:36:44.366Z,100370.50
2022-08-19T02:44:28.838Z,100384.63
2022-08-19T03:12:43.068Z,100398.59
2022-08-19T03:15:10.113Z,100405.69
2022-08-19T03:17:39.307Z,100411.41
2022-08-19T03:20:09.566Z,100368.81
2022-08-19T03:22:42.634Z,100380.69
2022-08-19T03:25:16.759Z,100373.16
2022-08-19T03:27:48.969Z,100379.00
2022-08-19T03:30:23.125Z,100384.63
2022-08-19T03:32:55.889Z,100384.78
2022-08-19T03:35:43.428Z,100365.03
2022-08-19T03:39:33.445Z,100370.94
2022-08-19T03:42:45.440Z,100349.25
2022-08-19T03:44:50.409Z,100364.38
2022-08-19T03:47:18.070Z,100357.81
2022-08-19T03:49:48.090Z,100370.13
2022-08-19T03:52:16.267Z,100405.38
2022-08-19T03:54:43.083Z,100388.81
2022-08-19T03:57:10.208Z,100372.66
2022-08-19T03:59:38.258Z,100381.38
2022-08-19T04:02:11.060Z,100385.41
2022-08-19T04:04:44.485Z,100348.47
2022-08-19T04:07:16.286Z,100383.06
2022-08-19T04:09:42.862Z,100363.97
2022-08-19T04:12:09.441Z,100373.94
2022-08-19T04:14:36.074Z,100378.50
2022-08-19T04:17:05.902Z,100396.66
2022-08-19T04:19:34.669Z,100377.56
2022-08-19T04:22:01.445Z,100379.75
2022-08-19T04:24:36.685Z,100401.47
2022-08-19T04:27:03.857Z,100393.16
2022-08-19T04:29:31.329Z,100372.00
2022-08-19T04:31:59.827Z,100432.78
2022-08-19T04:35:16.920Z,100403.53
2022-08-19T04:37:48.115Z,100407.63
2022-08-19T04:40:36.328Z,100414.59
2022-08-19T04:43:02.921Z,100418.41
2022-08-19T05:29:12.210Z,100379.06
2022-08-19T05:31:41.883Z,100344.56
2022-08-19T05:34:18.231Z,100349.00
2022-08-19T05:36:47.228Z,100364.50
2022-08-19T05:39:18.590Z,100342.94
2022-08-19T05:41:47.412Z,100349.50
2022-08-19T05:44:14.744Z,100370.88
2022-08-19T05:46:44.654Z,100363.63
2022-08-19T05:49:11.419Z,100382.13
2022-08-19T05:51:38.415Z,100331.75
2022-08-19T05:54:07.057Z,100336.16
2022-08-19T05:56:38.729Z,100367.59
2022-08-19T05:59:11.749Z,100357.44
2022-08-19T06:01:44.231Z,100349.09
2022-08-19T06:04:10.986Z,100380.75
2022-08-19T06:06:40.704Z,100363.47
2022-08-19T06:09:08.682Z,100368.31
2022-08-19T06:11:41.048Z,100399.59
2022-08-19T06:14:16.458Z,100394.84
2022-08-19T06:16:44.473Z,100367.03
2022-08-19T06:19:17.544Z,100423.81
2022-08-19T06:21:46.192Z,100404.19
2022-08-19T06:24:20.641Z,100414.53
2022-08-19T06:29:23.715Z,100414.00
2022-08-19T06:31:54.798Z,100419.22
2022-08-19T06:34:35.100Z,100391.69
2022-08-19T06:37:10.238Z,100372.63
2022-08-19T06:39:48.951Z,100388.16
2022-08-19T06:45:59.332Z,100377.56
2022-08-19T06:48:29.128Z,100419.38
2022-08-19T06:51:03.455Z,100406.00
2022-08-19T06:54:19.012Z,100406.63
2022-08-19T06:56:46.937Z,100444.97
2022-08-19T06:59:27.741Z,100416.22
2022-08-19T07:01:58.374Z,100404.84
2022-08-19T07:04:30.713Z,100433.31
2022-08-19T07:07:21.392Z,100404.50
2022-08-19T07:09:51.796Z,100453.50
2022-08-19T07:12:30.484Z,100449.34
2022-08-19T07:15:04.447Z,100426.41
2022-08-19T07:17:31.868Z,100456.97
2022-08-19T07:20:06.726Z,100439.69
2022-08-19T07:22:39.279Z,100412.94
2022-08-19T07:25:10.819Z,100400.91
2022-08-19T07:27:39.693Z,100430.75
2022-08-19T07:30:08.157Z,100425.03
2022-08-19T07:33:35.699Z,100451.91
2022-08-19T07:36:33.491Z,100409.03
2022-08-19T07:42:49.871Z,100429.44
2022-08-19T07:45:17.486Z,100425.81
2022-08-19T07:47:51.346Z,100434.25
2022-08-19T07:57:59.953Z,100449.28
2022-08-19T08:00:27.533Z,100440.81
2022-08-19T08:02:55.726Z,100453.63
2022-08-19T08:10:19.995Z,100486.88
2022-08-19T08:20:21.585Z,100471.78
2022-08-19T08:23:07.781Z,100454.66
2022-08-19T08:26:29.857Z,100490.94
2022-08-19T08:36:49.887Z,100512.56
2022-08-19T08:39:21.424Z,100493.75
2022-08-19T08:42:24.603Z,100517.94
2022-08-19T08:49:39.415Z,100527.78
2022-08-19T08:52:31.792Z,100529.47
2022-08-19T08:55:10.332Z,100484.88
2022-08-19T11:44:14.144Z,100514.25
2022-08-19T11:49:53.069Z,100494.38
2022-08-19T11:59:27.853Z,100479.84
2022-08-19T12:08:49.515Z,100510.91
2022-08-19T12:12:26.061Z,100532.13
2022-08-19T12:22:31.402Z,100555.84
2022-08-19T12:25:22.459Z,100509.72
2022-08-19T12:35:58.516Z,100527.78
2022-08-19T12:54:32.664Z,100562.50
2022-08-19T12:57:59.804Z,100569.75
2022-08-19T13:00:29.952Z,100533.69
2022-08-19T13:14:28.722Z,100511.06
2022-08-19T13:21:20.417Z,100515.13
2022-08-19T13:23:56.219Z,100519.28
2022-08-19T13:26:29.283Z,100513.69
2022-08-19T13:29:22.733Z,100512.31
2022-08-19T13:32:49.183Z,100560.59
2022-08-19T13:35:48.549Z,100518.19
2022-08-19T14:00:50.546Z,100555.00
2022-08-19T14:03:23.656Z,100522.63
2022-08-19T14:06:12.018Z,100498.81
2022-08-19T14:13:32.011Z,100493.50
2022-08-19T14:16:24.461Z,100531.16
2022-08-19T14:19:31.300Z,100479.72
2022-08-19T14:26:25.632Z,100541.13
2022-08-19T14:29:13.194Z,100501.50
2022-08-19T14:31:42.560Z,100515.91
2022-08-19T14:38:43.702Z,100511.91
2022-08-19T16:09:38.261Z,100585.09
2022-08-19T16:12:24.216Z,100562.44
2022-08-19T16:14:52.514Z,100584.00
2022-08-19T16:17:19.543Z,100609.63
2022-08-19T16:19:52.781Z,100581.97
2022-08-19T16:22:29.507Z,100577.81
2022-08-19T16:51:17.680Z,100618.31
2022-08-19T16:54:32.659Z,100600.31
